Terminal Aerodrome Forecast
Issued by NWS

Home | Current Version | Previous Version | Text Only | Print | Product List | Glossary On
Versions: 1 2 3 4 5 6 7 8 9 10 11 12 13 14 15 16 17 18 19 20 21 22 23 24 25 26 27 28 29 30 31 32
000
FTUS43 KDMX 212336
TAFMCW
TAF
KMCW 212336Z 2200/2224 19007KT P6SM BKN120
     FM220700 25006KT 6SM BR SCT050
     FM221000 VRB02KT 2SM BR SCT006 BKN120
      TEMPO 2211/2213 1SM BR SCT004 BKN008
     FM221300 34006KT P6SM SCT010 BKN110=

USA.gov is the U.S. government's official web portal to all federal, state and local government web resources and services.